Preview of NWS' New Version of Forecast
This preview is not operational and should not be used for support decisions.

Terminal Aerodrome Forecast (TAF)

Issued by National Weather Service (NWS)

                            
000
FTUS45 KBOI 231726
TAFMYL
TAF
KMYL 231726Z 2318/2418 VRB05KT P6SM SKC
     FM232100 26007KT P6SM SKC
     FM240200 VRB03KT P6SM SCT200=